Time;durP1;ratioP1;P1;durP2;ratioP2;P2;SDS_P1;SDS_P2;PMS_P1;PMS_P2;Temp;Humidity;BMP_temperature;BMP_pressure;BME280_temperature;BME280_humidity;BME280_pressure;Samples;Min_cycle;Max_cycle;Signal;HPM_P1;HPM_P2
2021/09/15 00:01:15;;;;;;;27.20;24.58;;;18.80;99.90;;;;;;5092330;28;20081;-61
2021/09/15 00:03:40;;;;;;;27.83;24.70;;;18.80;99.90;;;;;;5092386;28;20089;-61
2021/09/15 00:06:06;;;;;;;26.65;24.02;;;18.70;99.90;;;;;;5092457;28;20028;-62
2021/09/15 00:08:32;;;;;;;26.00;23.23;;;18.70;99.90;;;;;;5092407;28;20043;-61
2021/09/15 00:10:58;;;;;;;27.75;24.42;;;18.70;99.90;;;;;;5092138;28;20443;-62
2021/09/15 00:13:24;;;;;;;27.40;24.38;;;18.70;99.90;;;;;;5092224;28;20118;-62
2021/09/15 00:15:50;;;;;;;28.58;25.75;;;18.70;99.90;;;;;;5092122;28;20036;-62
2021/09/15 00:18:15;;;;;;;27.25;24.42;;;18.70;99.90;;;;;;5090234;28;20129;-62
2021/09/15 00:20:41;;;;;;;27.50;24.63;;;18.60;99.90;;;;;;5092664;28;20361;-62
2021/09/15 00:23:07;;;;;;;28.23;25.60;;;18.60;99.90;;;;;;5092313;28;20054;-61
2021/09/15 00:25:32;;;;;;;27.58;24.80;;;18.60;99.90;;;;;;5091910;28;20058;-61
2021/09/15 00:27:58;;;;;;;27.50;24.67;;;18.60;99.90;;;;;;5091984;28;20051;-62
2021/09/15 00:30:24;;;;;;;29.02;25.83;;;18.60;99.90;;;;;;5091799;28;20054;-61
2021/09/15 00:32:49;;;;;;;27.92;24.95;;;18.60;99.90;;;;;;5091765;28;20032;-61
2021/09/15 00:35:15;;;;;;;27.88;25.10;;;18.60;99.90;;;;;;5092038;28;20043;-62
2021/09/15 00:37:41;;;;;;;27.85;24.90;;;18.50;99.90;;;;;;5090562;28;20048;-62
2021/09/15 00:40:08;;;;;;;27.63;24.80;;;18.60;99.90;;;;;;5091840;28;20076;-62
2021/09/15 00:42:34;;;;;;;28.58;25.58;;;18.60;99.90;;;;;;5091785;28;20056;-61
2021/09/15 00:45:00;;;;;;;29.98;27.13;;;18.50;99.90;;;;;;5091595;28;20040;-61
2021/09/15 00:47:25;;;;;;;27.95;24.92;;;18.50;99.90;;;;;;5091883;28;20087;-61
2021/09/15 00:49:51;;;;;;;29.08;25.70;;;18.50;99.90;;;;;;5091782;28;20036;-62
2021/09/15 00:52:17;;;;;;;27.95;25.25;;;18.50;99.90;;;;;;5090427;28;20040;-61
2021/09/15 00:54:43;;;;;;;27.85;25.05;;;18.50;99.90;;;;;;5091594;28;20115;-61
2021/09/15 00:57:08;;;;;;;30.02;26.92;;;18.50;99.90;;;;;;5091549;28;20115;-62
2021/09/15 00:59:34;;;;;;;30.42;26.55;;;18.50;99.90;;;;;;5091589;28;20036;-61
2021/09/15 01:02:00;;;;;;;27.35;24.48;;;18.50;99.90;;;;;;5091772;28;20043;-62
2021/09/15 01:04:25;;;;;;;33.25;27.15;;;18.50;99.90;;;;;;5092003;28;20112;-62
2021/09/15 01:06:51;;;;;;;29.35;26.55;;;18.50;99.90;;;;;;5091533;28;20477;-61
2021/09/15 01:09:17;;;;;;;27.67;24.88;;;18.50;99.90;;;;;;5091567;28;20044;-62
2021/09/15 01:11:44;;;;;;;29.73;26.40;;;18.50;99.90;;;;;;5091517;28;20032;-62
2021/09/15 01:14:10;;;;;;;28.83;25.85;;;18.50;99.90;;;;;;5090301;28;20442;-62
2021/09/15 01:16:54;;;;;;;28.58;25.77;;;18.50;99.90;;;;;;5091411;28;20044;-61
2021/09/15 01:19:21;;;;;;;28.85;25.77;;;18.50;99.90;;;;;;5091512;28;20083;-61
2021/09/15 01:21:48;;;;;;;29.60;26.42;;;18.50;99.90;;;;;;5091469;28;20048;-61
2021/09/15 01:24:14;;;;;;;30.77;27.55;;;18.50;99.90;;;;;;5091446;28;20136;-62
2021/09/15 01:26:39;;;;;;;29.15;26.05;;;18.40;99.90;;;;;;5091201;28;20130;-61
2021/09/15 01:29:05;;;;;;;29.92;27.00;;;18.40;99.90;;;;;;5092939;28;20036;-61
2021/09/15 01:31:31;;;;;;;30.65;26.67;;;18.40;99.90;;;;;;5095209;28;20051;-61
2021/09/15 01:33:57;;;;;;;30.50;27.52;;;18.40;99.90;;;;;;5093930;28;20105;-62
2021/09/15 01:36:22;;;;;;;27.83;25.17;;;18.40;99.90;;;;;;5095223;28;20032;-61
2021/09/15 01:38:48;;;;;;;31.40;26.95;;;18.40;99.90;;;;;;5095139;28;20538;-61
2021/09/15 01:41:13;;;;;;;28.83;25.95;;;18.40;99.90;;;;;;5095459;28;20106;-61
2021/09/15 01:43:49;;;;;;;30.35;27.25;;;18.40;99.90;;;;;;5095215;28;20050;-61
2021/09/15 01:46:15;;;;;;;30.02;26.83;;;18.40;99.90;;;;;;5094926;28;20508;-61
2021/09/15 01:48:41;;;;;;;31.95;28.70;;;18.40;99.90;;;;;;5094838;28;20035;-61
2021/09/15 01:51:06;;;;;;;37.42;28.92;;;18.40;99.90;;;;;;5094769;28;20075;-61
2021/09/15 01:53:32;;;;;;;30.38;27.25;;;18.40;99.90;;;;;;5095264;28;20119;-62
2021/09/15 01:55:57;;;;;;;31.50;28.05;;;18.40;99.90;;;;;;5094677;28;20390;-61
2021/09/15 01:58:23;;;;;;;29.58;26.63;;;18.30;99.90;;;;;;5094935;28;20093;-62
2021/09/15 02:00:48;;;;;;;31.75;28.38;;;18.30;99.90;;;;;;5094758;28;20108;-61
2021/09/15 02:03:14;;;;;;;32.33;29.00;;;18.30;99.90;;;;;;5094775;28;20105;-61
2021/09/15 02:05:40;;;;;;;30.33;27.27;;;18.30;99.90;;;;;;5094791;28;20110;-61
2021/09/15 02:08:05;;;;;;;34.30;28.05;;;18.30;99.90;;;;;;5094554;28;20040;-61
2021/09/15 02:10:31;;;;;;;33.13;29.67;;;18.30;99.90;;;;;;5094292;28;20036;-61
2021/09/15 02:12:57;;;;;;;33.67;30.35;;;18.30;99.90;;;;;;5094576;28;20040;-62
2021/09/15 02:15:22;;;;;;;32.65;29.45;;;18.20;99.90;;;;;;5094311;28;20040;-61
2021/09/15 02:17:48;;;;;;;32.33;28.85;;;18.20;99.90;;;;;;5094497;28;20070;-61
2021/09/15 02:20:14;;;;;;;33.40;30.08;;;18.20;99.90;;;;;;5094403;28;20126;-61
2021/09/15 02:22:39;;;;;;;32.25;29.05;;;18.10;99.90;;;;;;5094490;28;20036;-61
2021/09/15 02:25:06;;;;;;;33.45;29.95;;;18.10;99.90;;;;;;5093981;28;20393;-61
2021/09/15 02:27:32;;;;;;;33.80;30.13;;;18.10;99.90;;;;;;5094045;28;20094;-61
2021/09/15 02:29:57;;;;;;;34.13;28.08;;;18.00;99.90;;;;;;5094176;28;20075;-61
2021/09/15 02:32:23;;;;;;;36.15;31.83;;;18.10;99.90;;;;;;5094073;28;20047;-62
2021/09/15 02:34:49;;;;;;;34.38;30.88;;;18.00;99.90;;;;;;5094004;28;20036;-62
2021/09/15 02:37:15;;;;;;;35.65;31.83;;;18.00;99.90;;;;;;5093860;28;20082;-61
2021/09/15 02:39:41;;;;;;;37.05;32.15;;;18.00;99.90;;;;;;5093739;28;20490;-62
2021/09/15 02:42:07;;;;;;;33.22;29.50;;;17.90;99.90;;;;;;5093419;28;20043;-61
2021/09/15 02:44:33;;;;;;;35.17;31.38;;;17.90;99.90;;;;;;5094101;28;20043;-61
2021/09/15 02:46:59;;;;;;;37.03;32.10;;;17.90;99.90;;;;;;5094167;28;20055;-61
2021/09/15 02:49:27;;;;;;;35.45;31.75;;;17.90;99.90;;;;;;5093912;28;20040;-61
2021/09/15 02:51:54;;;;;;;39.70;34.53;;;17.80;99.90;;;;;;5093888;28;20125;-61
2021/09/15 02:54:20;;;;;;;36.95;32.20;;;17.80;99.90;;;;;;5093931;28;20044;-60
2021/09/15 02:56:46;;;;;;;35.97;31.85;;;17.80;99.90;;;;;;5093905;28;20048;-61
2021/09/15 02:59:12;;;;;;;38.35;34.30;;;17.80;99.90;;;;;;5093513;28;20052;-61
2021/09/15 03:01:37;;;;;;;40.40;36.03;;;17.80;99.90;;;;;;5093612;28;20040;-61
2021/09/15 03:04:03;;;;;;;36.78;32.80;;;17.80;99.90;;;;;;5093471;28;20390;-61
2021/09/15 03:06:29;;;;;;;37.28;33.22;;;17.80;99.90;;;;;;5093415;28;20504;-61
2021/09/15 03:08:54;;;;;;;40.30;34.13;;;17.70;99.90;;;;;;5093079;28;20040;-62
2021/09/15 03:11:20;;;;;;;38.95;34.80;;;17.80;99.90;;;;;;5093527;28;20028;-62
2021/09/15 03:13:46;;;;;;;39.03;34.65;;;17.70;99.90;;;;;;5093090;28;20527;-62
2021/09/15 03:16:15;;;;;;;45.10;37.63;;;17.70;99.90;;;;;;5092016;28;20036;-62
2021/09/15 03:18:41;;;;;;;43.75;36.45;;;17.70;99.90;;;;;;5093214;28;20036;-62
2021/09/15 03:21:07;;;;;;;45.28;39.58;;;17.70;99.90;;;;;;5093029;28;20104;-61
2021/09/15 03:23:33;;;;;;;42.40;37.20;;;17.70;99.90;;;;;;5092925;28;20079;-61
2021/09/15 03:25:58;;;;;;;41.70;37.13;;;17.60;99.90;;;;;;5092935;28;20095;-61
2021/09/15 03:28:24;;;;;;;42.95;37.92;;;17.60;99.90;;;;;;5093085;28;20054;-61
2021/09/15 03:30:50;;;;;;;47.92;38.50;;;17.60;99.90;;;;;;5092974;28;20036;-62
2021/09/15 03:33:15;;;;;;;44.22;38.58;;;17.60;99.90;;;;;;5092964;28;20054;-61
2021/09/15 03:35:41;;;;;;;39.58;35.35;;;17.60;99.90;;;;;;5092638;28;20038;-60
2021/09/15 03:38:06;;;;;;;50.40;40.28;;;17.60;99.90;;;;;;5092738;28;20082;-61
2021/09/15 03:40:32;;;;;;;44.38;37.95;;;17.50;99.90;;;;;;5093223;28;20071;-61
2021/09/15 03:42:58;;;;;;;46.65;39.75;;;17.60;99.90;;;;;;5093157;28;20679;-61
2021/09/15 03:45:23;;;;;;;44.00;39.38;;;17.60;99.90;;;;;;5092595;28;20371;-62
2021/09/15 03:47:49;;;;;;;49.22;40.78;;;17.50;99.90;;;;;;5092654;28;20097;-61
2021/09/15 03:50:14;;;;;;;46.70;38.90;;;17.50;99.90;;;;;;5092418;28;20040;-61
2021/09/15 03:52:40;;;;;;;49.95;41.20;;;17.50;99.90;;;;;;5091513;28;20390;-60
2021/09/15 03:55:06;;;;;;;49.15;40.50;;;17.50;99.90;;;;;;5092670;28;20043;-61
2021/09/15 03:57:32;;;;;;;43.55;37.72;;;17.50;99.90;;;;;;5092509;28;20435;-62
2021/09/15 03:59:57;;;;;;;47.85;40.50;;;17.50;99.90;;;;;;5092475;28;20170;-61
2021/09/15 04:02:23;;;;;;;44.33;38.38;;;17.50;99.90;;;;;;5092415;28;20177;-62
2021/09/15 04:04:48;;;;;;;51.63;41.13;;;17.40;99.90;;;;;;5092316;28;20071;-61
2021/09/15 04:07:14;;;;;;;47.72;41.28;;;17.40;99.90;;;;;;5092176;28;20394;-61
2021/09/15 04:09:40;;;;;;;48.92;39.38;;;17.50;99.90;;;;;;5092053;28;20047;-61
2021/09/15 04:12:06;;;;;;;47.00;41.15;;;17.40;99.90;;;;;;5092295;28;20039;-62
2021/09/15 04:14:31;;;;;;;42.50;37.72;;;17.40;99.90;;;;;;5092287;28;20036;-61
2021/09/15 04:16:57;;;;;;;44.28;38.85;;;17.30;99.90;;;;;;5074128;28;20055;-61
2021/09/15 04:19:22;;;;;;;48.30;39.42;;;17.40;99.90;;;;;;5092332;28;20044;-61
2021/09/15 04:21:48;;;;;;;51.30;41.92;;;17.30;99.90;;;;;;5091926;28;20040;-60
2021/09/15 04:32:26;;;;;;;45.50;40.70;;;17.30;99.90;;;;;;5092137;28;20040;-61
2021/09/15 04:34:52;;;;;;;50.03;41.40;;;17.20;99.90;;;;;;5092018;28;20094;-61
2021/09/15 04:37:18;;;;;;;61.03;46.10;;;17.20;99.90;;;;;;5092224;28;20089;-61
2021/09/15 04:39:43;;;;;;;52.70;43.55;;;17.20;99.90;;;;;;5091890;28;20123;-62
2021/09/15 04:42:09;;;;;;;50.47;44.35;;;17.20;99.90;;;;;;5090801;28;20036;-61
2021/09/15 04:44:35;;;;;;;51.58;45.38;;;17.20;99.90;;;;;;5091936;28;20052;-61
2021/09/15 04:47:00;;;;;;;51.63;43.78;;;17.20;99.90;;;;;;5092257;28;20035;-60
2021/09/15 04:49:26;;;;;;;58.15;45.95;;;17.20;99.90;;;;;;5091771;28;20385;-61
2021/09/15 04:51:52;;;;;;;48.85;43.55;;;17.20;99.90;;;;;;5091785;28;20040;-62
2021/09/15 04:54:17;;;;;;;51.75;43.13;;;17.20;99.90;;;;;;5091595;28;20032;-61
2021/09/15 04:56:43;;;;;;;52.72;44.47;;;17.10;99.90;;;;;;5091669;28;20082;-61
2021/09/15 04:59:08;;;;;;;55.97;45.25;;;17.20;99.90;;;;;;5091555;28;20036;-62
2021/09/15 05:01:34;;;;;;;52.33;44.33;;;17.10;99.90;;;;;;5091866;28;20044;-62
2021/09/15 05:03:59;;;;;;;49.70;44.03;;;17.20;99.90;;;;;;5093199;28;20036;-61
2021/09/15 05:06:25;;;;;;;55.53;46.58;;;17.20;99.90;;;;;;5095792;28;20047;-62
2021/09/15 05:08:51;;;;;;;47.25;41.88;;;17.10;99.90;;;;;;5095723;28;20474;-62
2021/09/15 05:11:16;;;;;;;54.47;45.30;;;17.10;99.90;;;;;;5095637;28;20032;-61
2021/09/15 05:13:42;;;;;;;51.92;44.00;;;17.10;99.90;;;;;;5095623;28;20438;-61
2021/09/15 05:16:07;;;;;;;55.33;44.78;;;17.10;99.90;;;;;;5095515;28;20035;-61
2021/09/15 05:18:33;;;;;;;58.88;47.75;;;17.10;99.90;;;;;;5095680;28;20036;-61
2021/09/15 05:20:59;;;;;;;49.67;44.30;;;17.10;99.90;;;;;;5095920;28;20476;-62
2021/09/15 05:23:24;;;;;;;52.38;45.70;;;17.10;99.90;;;;;;5095683;28;20115;-62
2021/09/15 05:25:50;;;;;;;55.33;44.95;;;17.00;99.90;;;;;;5095199;28;20084;-61
2021/09/15 05:28:16;;;;;;;51.47;43.75;;;17.00;99.90;;;;;;5095210;28;20500;-61
2021/09/15 05:30:41;;;;;;;48.50;43.17;;;17.00;99.90;;;;;;5095099;28;20127;-62
2021/09/15 05:33:08;;;;;;;51.78;43.75;;;17.10;99.90;;;;;;5095377;28;20120;-61
2021/09/15 05:35:34;;;;;;;60.15;48.35;;;17.00;99.90;;;;;;5095331;28;20409;-61
2021/09/15 05:38:00;;;;;;;49.33;42.83;;;17.10;99.90;;;;;;5095232;28;20040;-61
2021/09/15 05:40:25;;;;;;;51.38;42.53;;;17.10;99.90;;;;;;5095085;28;20112;-62
2021/09/15 05:42:51;;;;;;;70.03;54.08;;;17.10;99.90;;;;;;5095058;28;20040;-62
2021/09/15 05:45:16;;;;;;;53.95;47.67;;;17.20;99.90;;;;;;5094970;28;20115;-61
2021/09/15 05:47:42;;;;;;;54.55;45.60;;;17.20;99.90;;;;;;5095069;28;20044;-62
2021/09/15 05:50:09;;;;;;;74.55;53.95;;;17.20;99.90;;;;;;5094798;28;20143;-62
2021/09/15 05:52:34;;;;;;;67.97;51.78;;;17.20;99.90;;;;;;5094696;28;20131;-61
2021/09/15 05:55:00;;;;;;;56.97;46.88;;;17.20;99.90;;;;;;5094884;28;20123;-62
2021/09/15 05:57:26;;;;;;;69.93;53.38;;;17.20;99.90;;;;;;5094751;28;20036;-60
2021/09/15 05:59:51;;;;;;;64.28;50.35;;;17.30;99.90;;;;;;5094922;28;20044;-62
2021/09/15 06:02:17;;;;;;;63.90;51.60;;;17.30;99.90;;;;;;5095130;28;20101;-62
2021/09/15 06:04:43;;;;;;;65.22;51.80;;;17.40;99.90;;;;;;5094678;28;20067;-61
2021/09/15 06:07:08;;;;;;;77.78;54.38;;;17.40;99.90;;;;;;5093659;28;20094;-62
2021/09/15 06:09:34;;;;;;;63.42;51.28;;;17.40;99.90;;;;;;5094455;28;20048;-61
2021/09/15 06:12:00;;;;;;;74.38;54.58;;;17.40;99.90;;;;;;5094463;28;20024;-61
2021/09/15 06:14:25;;;;;;;68.55;53.05;;;17.40;99.90;;;;;;5094409;28;20046;-61
2021/09/15 06:16:51;;;;;;;61.83;51.33;;;17.50;99.90;;;;;;5093453;28;20382;-61
2021/09/15 06:19:17;;;;;;;72.25;55.88;;;17.50;99.90;;;;;;5094478;28;20119;-62
2021/09/15 06:21:42;;;;;;;75.53;56.40;;;17.60;99.90;;;;;;5094415;28;20051;-62
2021/09/15 06:24:08;;;;;;;69.80;53.80;;;17.60;99.90;;;;;;5094270;28;20044;-61
2021/09/15 06:26:34;;;;;;;66.68;52.13;;;17.60;99.90;;;;;;5093972;28;20554;-61
2021/09/15 06:28:59;;;;;;;70.30;54.45;;;17.60;99.90;;;;;;5094028;28;20048;-62
2021/09/15 06:31:25;;;;;;;69.90;53.88;;;17.70;99.90;;;;;;5094058;28;20371;-61
2021/09/15 06:33:52;;;;;;;70.88;54.38;;;17.70;99.90;;;;;;5094183;28;20032;-60
2021/09/15 06:36:19;;;;;;;76.03;54.83;;;17.70;99.90;;;;;;5092866;28;20048;-61
2021/09/15 06:38:45;;;;;;;78.13;56.55;;;17.70;99.90;;;;;;5093997;28;20044;-61
2021/09/15 06:41:11;;;;;;;83.68;56.78;;;17.70;99.90;;;;;;5093896;28;20036;-62
2021/09/15 06:43:38;;;;;;;82.30;56.40;;;17.70;99.90;;;;;;5093805;28;20036;-61
2021/09/15 06:46:03;;;;;;;76.40;53.50;;;17.80;99.90;;;;;;5094052;28;20156;-62
2021/09/15 06:48:29;;;;;;;84.95;54.75;;;17.80;99.90;;;;;;5094144;28;20822;-62
2021/09/15 06:50:55;;;;;;;83.10;56.58;;;17.80;99.90;;;;;;5094270;28;20044;-62
2021/09/15 06:53:20;;;;;;;81.00;56.80;;;17.80;99.90;;;;;;5093674;28;20043;-61
2021/09/15 06:55:46;;;;;;;80.53;54.58;;;17.90;99.90;;;;;;5093619;28;20127;-62
2021/09/15 06:58:11;;;;;;;78.63;53.75;;;17.90;99.90;;;;;;5093683;28;20078;-61
2021/09/15 07:00:37;;;;;;;76.43;52.15;;;17.90;99.90;;;;;;5093657;28;20490;-62
2021/09/15 07:03:03;;;;;;;79.78;56.00;;;17.90;99.90;;;;;;5093654;28;20044;-61
2021/09/15 07:05:30;;;;;;;78.82;53.30;;;17.80;99.90;;;;;;5093319;28;20043;-61
2021/09/15 07:07:55;;;;;;;83.32;53.70;;;17.90;99.90;;;;;;5091826;28;20127;-61
2021/09/15 07:10:21;;;;;;;77.88;51.78;;;17.90;99.90;;;;;;5093157;28;20549;-60
2021/09/15 07:12:47;;;;;;;75.68;52.92;;;17.90;99.90;;;;;;5093313;28;20115;-61
2021/09/15 07:15:14;;;;;;;71.88;52.20;;;18.00;99.90;;;;;;5092281;28;20127;-61
2021/09/15 07:17:40;;;;;;;76.75;54.03;;;18.10;99.90;;;;;;5093316;28;20044;-62
2021/09/15 07:20:06;;;;;;;76.93;51.88;;;18.00;99.90;;;;;;5093229;28;20044;-62
2021/09/15 07:22:32;;;;;;;74.70;50.60;;;18.00;99.90;;;;;;5093324;28;20457;-61
2021/09/15 07:24:57;;;;;;;76.75;53.25;;;18.10;99.90;;;;;;5092919;28;20032;-60
2021/09/15 07:27:23;;;;;;;80.25;54.35;;;18.10;99.90;;;;;;5092739;28;20056;-61
2021/09/15 07:29:49;;;;;;;70.43;50.22;;;18.10;99.90;;;;;;5093091;28;20036;-62
2021/09/15 07:32:15;;;;;;;67.82;48.30;;;18.20;99.90;;;;;;5093024;28;20099;-61
2021/09/15 07:34:44;;;;;;;67.40;48.83;;;18.20;99.90;;;;;;5093228;28;20044;-61
2021/09/15 07:37:14;;;;;;;76.35;53.13;;;18.30;99.90;;;;;;5091673;28;20048;-61
2021/09/15 07:39:40;;;;;;;78.55;52.50;;;18.30;99.90;;;;;;5093221;28;20040;-61
2021/09/15 07:42:07;;;;;;;77.20;51.67;;;18.40;99.90;;;;;;5092641;28;20485;-62
2021/09/15 07:44:33;;;;;;;69.80;50.95;;;18.40;99.90;;;;;;5092775;28;20131;-61
2021/09/15 07:46:59;;;;;;;70.68;49.47;;;18.50;99.90;;;;;;5092638;28;20032;-61
2021/09/15 07:49:24;;;;;;;78.22;54.17;;;18.60;99.90;;;;;;5092645;28;20054;-61
2021/09/15 07:51:50;;;;;;;81.45;52.03;;;18.50;99.90;;;;;;5092873;28;20154;-61
2021/09/15 07:54:16;;;;;;;78.65;53.58;;;18.50;99.90;;;;;;5092521;28;20036;-61
2021/09/15 07:56:41;;;;;;;71.15;51.22;;;18.50;99.90;;;;;;5092688;28;20044;-62
2021/09/15 07:59:07;;;;;;;81.50;54.83;;;18.50;99.90;;;;;;5092387;28;20032;-61
2021/09/15 08:01:32;;;;;;;87.57;55.50;;;18.50;99.90;;;;;;5092531;28;20107;-61
2021/09/15 08:03:58;;;;;;;71.85;48.90;;;18.60;99.90;;;;;;5092349;28;20382;-61
2021/09/15 08:06:24;;;;;;;84.13;53.58;;;18.60;99.90;;;;;;5090788;28;20051;-61
2021/09/15 08:08:49;;;;;;;83.93;57.70;;;18.60;99.90;;;;;;5092087;28;20035;-61
2021/09/15 08:11:15;;;;;;;87.80;56.95;;;18.60;99.90;;;;;;5092407;28;20097;-60
2021/09/15 08:13:41;;;;;;;85.10;56.88;;;18.70;99.90;;;;;;5092171;28;20036;-60
2021/09/15 08:16:07;;;;;;;78.25;53.88;;;18.70;99.90;;;;;;5092106;28;20036;-61
2021/09/15 08:18:34;;;;;;;84.55;55.25;;;18.80;99.90;;;;;;5092110;28;20036;-61
2021/09/15 08:21:01;;;;;;;88.85;57.15;;;18.80;99.90;;;;;;5092028;28;20482;-61
2021/09/15 08:23:27;;;;;;;84.13;54.20;;;18.90;99.90;;;;;;5091878;28;20040;-60
2021/09/15 08:25:54;;;;;;;76.22;55.60;;;19.00;99.90;;;;;;5092057;28;20056;-60
2021/09/15 08:28:20;;;;;;;80.43;55.40;;;19.20;99.90;;;;;;5090721;28;20036;-60
2021/09/15 08:30:46;;;;;;;75.85;52.53;;;19.30;99.90;;;;;;5091964;28;20568;-61
2021/09/15 08:33:11;;;;;;;81.68;52.92;;;19.40;99.90;;;;;;5091879;28;20039;-61
2021/09/15 08:35:37;;;;;;;77.25;52.33;;;19.40;99.90;;;;;;5091921;28;20047;-62
2021/09/15 08:38:03;;;;;;;71.47;52.42;;;19.40;99.90;;;;;;5091487;28;20036;-60
2021/09/15 08:40:28;;;;;;;73.95;49.08;;;19.50;99.90;;;;;;5092351;28;20151;-61
2021/09/15 08:42:54;;;;;;;74.25;52.90;;;19.50;99.90;;;;;;5091981;28;20044;-61
2021/09/15 08:45:23;;;;;;;74.32;51.13;;;19.60;99.90;;;;;;5091789;28;20098;-61
2021/09/15 08:47:51;;;;;;;72.97;52.70;;;19.70;99.90;;;;;;5091918;28;20043;-61
2021/09/15 08:50:17;;;;;;;72.55;53.00;;;19.80;99.90;;;;;;5091880;28;20040;-61
2021/09/15 08:52:43;;;;;;;71.97;49.35;;;19.80;99.90;;;;;;5091794;28;20107;-61
2021/09/15 08:55:09;;;;;;;70.20;50.45;;;19.80;99.90;;;;;;5090951;28;20052;-61
2021/09/15 08:57:36;;;;;;;72.60;50.15;;;19.80;99.90;;;;;;5091726;28;20122;-61
2021/09/15 09:00:08;;;;;;;74.68;51.28;;;19.80;99.90;;;;;;5091800;28;20071;-61
2021/09/15 09:02:39;;;;;;;65.90;48.08;;;19.80;99.90;;;;;;5091756;28;20127;-61
2021/09/15 09:05:06;;;;;;;68.15;50.08;;;19.80;99.90;;;;;;5091567;28;20036;-61
2021/09/15 09:07:34;;;;;;;69.22;47.88;;;19.80;99.90;;;;;;5091784;28;20046;-60
2021/09/15 09:10:08;;;;;;;65.00;48.97;;;19.80;99.90;;;;;;5091629;28;20119;-61
2021/09/15 09:12:36;;;;;;;77.45;53.30;;;19.70;99.90;;;;;;5091559;28;20079;-61
2021/09/15 09:15:22;;;;;;;73.07;51.60;;;19.70;99.90;;;;;;5091516;28;20111;-61
2021/09/15 09:17:48;;;;;;;76.10;51.67;;;19.70;99.90;;;;;;5091431;28;20051;-61
2021/09/15 09:20:30;;;;;;;72.53;50.70;;;19.70;99.90;;;;;;5091672;28;20043;-62
2021/09/15 09:23:13;;;;;;;76.00;54.05;;;19.80;99.90;;;;;;5091520;28;20397;-61
2021/09/15 09:25:59;;;;;;;73.78;51.58;;;19.80;99.90;;;;;;5091519;28;20058;-61
2021/09/15 09:28:33;;;;;;;75.65;52.42;;;19.80;99.90;;;;;;5091343;28;20565;-61
2021/09/15 09:31:01;;;;;;;75.80;52.22;;;19.90;99.90;;;;;;5091464;28;20058;-61
2021/09/15 09:33:27;;;;;;;64.40;45.85;;;19.80;99.90;;;;;;5091357;28;20453;-62
2021/09/15 09:35:58;;;;;;;70.20;50.42;;;19.80;99.90;;;;;;5091420;28;20448;-62
2021/09/15 09:38:39;;;;;;;72.93;51.80;;;19.80;99.90;;;;;;5091334;28;20044;-61
2021/09/15 09:41:16;;;;;;;77.97;52.47;;;19.80;99.90;;;;;;5091427;28;20123;-62
2021/09/15 09:43:52;;;;;;;74.55;51.83;;;19.90;99.90;;;;;;5091258;28;20101;-61
2021/09/15 09:46:21;;;;;;;76.30;53.20;;;19.90;99.90;;;;;;5091352;28;20036;-62
2021/09/15 09:48:48;;;;;;;66.13;48.63;;;20.00;99.90;;;;;;5091150;28;20044;-61
2021/09/15 09:51:29;;;;;;;78.72;51.90;;;20.00;99.90;;;;;;5094257;28;20051;-62
2021/09/15 09:54:13;;;;;;;69.95;48.25;;;20.00;99.90;;;;;;5095151;28;20036;-61
2021/09/15 09:56:42;;;;;;;75.82;50.97;;;20.00;99.90;;;;;;5094830;28;20079;-61
2021/09/15 09:59:09;;;;;;;67.85;49.20;;;20.10;99.90;;;;;;5094687;28;20124;-61
2021/09/15 10:01:41;;;;;;;60.58;45.35;;;20.20;99.90;;;;;;5094862;28;20093;-61
2021/09/15 10:04:07;;;;;;;66.10;48.85;;;20.30;99.90;;;;;;5093416;28;20058;-62
2021/09/15 10:06:38;;;;;;;65.70;47.90;;;20.40;99.90;;;;;;5094564;28;20115;-61
2021/09/15 10:09:05;;;;;;;61.40;48.13;;;20.40;99.90;;;;;;5094576;28;20036;-61
2021/09/15 10:11:31;;;;;;;61.58;44.85;;;20.50;99.90;;;;;;5094558;28;20034;-62
2021/09/15 10:13:58;;;;;;;62.38;47.25;;;20.50;99.90;;;;;;5094652;28;20119;-62
2021/09/15 10:16:24;;;;;;;63.90;44.17;;;20.50;99.90;;;;;;5094892;28;20089;-61
2021/09/15 10:19:03;;;;;;;54.85;42.25;;;20.50;99.90;;;;;;5094666;28;20042;-62
2021/09/15 10:21:30;;;;;;;49.95;39.83;;;20.50;99.90;;;;;;5094393;28;20040;-61
2021/09/15 10:23:56;;;;;;;48.90;37.28;;;20.50;99.90;;;;;;5094269;28;20043;-62
2021/09/15 10:26:35;;;;;;;51.78;39.42;;;20.50;99.90;;;;;;5093998;28;20052;-61
2021/09/15 10:29:16;;;;;;;38.97;32.85;;;20.50;99.90;;;;;;5094380;28;20044;-60
2021/09/15 10:31:48;;;;;;;41.83;32.33;;;20.50;99.90;;;;;;5094082;28;20059;-61
2021/09/15 10:34:40;;;;;;;45.28;32.78;;;20.50;99.90;;;;;;5094217;28;20154;-62
2021/09/15 10:37:06;;;;;;;41.08;32.40;;;20.60;99.90;;;;;;5093883;28;20078;-61
2021/09/15 10:39:32;;;;;;;42.83;32.47;;;20.80;99.90;;;;;;5094274;28;20044;-62
2021/09/15 10:41:58;;;;;;;45.10;32.92;;;20.90;99.90;;;;;;5093880;28;20044;-61
2021/09/15 10:44:24;;;;;;;42.63;31.67;;;21.00;99.90;;;;;;5094072;28;20122;-61
2021/09/15 10:47:16;;;;;;;40.92;33.40;;;21.00;99.90;;;;;;5094015;28;20113;-61
2021/09/15 10:49:42;;;;;;;41.17;31.75;;;21.00;99.90;;;;;;5093697;28;20040;-60
2021/09/15 10:52:08;;;;;;;48.13;34.05;;;20.90;99.90;;;;;;5092505;28;20036;-62
2021/09/15 10:54:43;;;;;;;40.90;31.63;;;20.90;99.90;;;;;;5093862;28;20109;-60
2021/09/15 10:57:20;;;;;;;45.92;34.35;;;20.90;99.90;;;;;;5093603;28;20065;-61
2021/09/15 10:59:51;;;;;;;44.92;34.40;;;20.80;99.90;;;;;;5093663;28;20044;-61
2021/09/15 11:02:34;;;;;;;47.38;34.45;;;20.70;99.90;;;;;;5092946;28;20477;-61
2021/09/15 11:05:43;;;;;;;46.72;33.15;;;20.70;99.90;;;;;;5093676;28;20524;-62
2021/09/15 11:08:18;;;;;;;40.15;32.38;;;20.70;99.90;;;;;;5071067;28;20109;-62
2021/09/15 11:10:45;;;;;;;41.95;30.67;;;20.80;99.90;;;;;;5070793;28;20052;-61
2021/09/15 11:13:14;;;;;;;38.10;29.45;;;20.90;99.90;;;;;;5070873;28;20049;-61
2021/09/15 11:15:48;;;;;;;39.80;30.45;;;21.00;99.90;;;;;;5070919;28;20041;-62
2021/09/15 11:18:24;;;;;;;37.05;28.10;;;21.00;99.90;;;;;;5070805;28;20051;-61
2021/09/15 11:21:03;;;;;;;32.78;25.80;;;21.10;99.90;;;;;;5070696;28;20040;-61
2021/09/15 11:23:29;;;;;;;34.80;27.00;;;21.20;99.90;;;;;;5070748;28;20131;-62
2021/09/15 11:25:56;;;;;;;33.55;24.65;;;21.20;99.90;;;;;;5070424;28;20052;-61
2021/09/15 11:28:23;;;;;;;38.50;28.33;;;21.10;99.90;;;;;;5070736;28;20421;-61
2021/09/15 11:30:51;;;;;;;34.58;26.75;;;21.10;99.90;;;;;;5070458;28;20040;-61
2021/09/15 11:33:29;;;;;;;34.83;27.10;;;21.10;99.90;;;;;;5070464;28;20094;-61
2021/09/15 11:36:12;;;;;;;36.13;27.05;;;21.20;99.90;;;;;;5053622;28;20437;-62
2021/09/15 11:38:41;;;;;;;31.80;24.63;;;21.20;99.90;;;;;;5070784;28;20055;-60
2021/09/15 11:41:12;;;;;;;33.25;25.50;;;21.30;99.90;;;;;;5070689;28;20044;-62
2021/09/15 11:43:40;;;;;;;33.65;24.73;;;21.30;99.90;;;;;;5070363;28;20093;-62
2021/09/15 11:46:06;;;;;;;34.27;24.00;;;21.30;99.90;;;;;;5090395;28;20055;-61
2021/09/15 11:48:34;;;;;;;30.85;25.23;;;21.30;99.90;;;;;;5092773;28;20334;-61
2021/09/15 11:51:17;;;;;;;33.33;26.70;;;21.30;99.90;;;;;;5092706;28;20036;-62
2021/09/15 11:53:55;;;;;;;33.25;25.10;;;21.20;99.90;;;;;;5092575;28;20055;-60
2021/09/15 11:56:52;;;;;;;32.00;24.05;;;21.20;99.90;;;;;;5092523;28;20096;-61
2021/09/15 11:59:17;;;;;;;30.40;23.50;;;21.20;99.90;;;;;;5092329;28;20136;-59
2021/09/15 12:01:43;;;;;;;31.42;24.13;;;21.30;99.90;;;;;;5092497;28;20036;-60
2021/09/15 12:04:10;;;;;;;32.65;23.70;;;21.50;99.90;;;;;;5092310;28;20050;-62
2021/09/15 12:06:37;;;;;;;32.67;24.60;;;21.50;99.90;;;;;;5092257;28;20082;-61
2021/09/15 12:09:03;;;;;;;29.90;24.17;;;21.50;99.90;;;;;;5092515;28;20043;-61
2021/09/15 12:11:34;;;;;;;32.17;24.17;;;21.60;99.90;;;;;;5092231;28;20048;-61
2021/09/15 12:14:01;;;;;;;30.30;25.17;;;21.60;99.90;;;;;;5091681;28;20047;-62
2021/09/15 12:16:36;;;;;;;30.70;23.85;;;21.80;99.90;;;;;;5092360;28;20044;-62
2021/09/15 12:19:02;;;;;;;28.55;22.33;;;21.80;99.90;;;;;;5092155;28;20057;-60
2021/09/15 12:21:29;;;;;;;27.23;23.02;;;21.90;99.90;;;;;;5092001;28;20481;-60
2021/09/15 12:24:05;;;;;;;30.55;24.35;;;21.80;99.90;;;;;;5091985;28;20484;-62
2021/09/15 12:26:30;;;;;;;30.55;24.95;;;21.70;99.90;;;;;;5091856;28;20060;-62
2021/09/15 12:29:20;;;;;;;33.58;25.30;;;21.70;99.90;;;;;;5091934;28;20491;-60
2021/09/15 12:31:46;;;;;;;;;;;21.70;99.90;;;;;;5049990;28;20045;-61
2021/09/15 12:34:14;;;;;;;29.33;23.25;;;21.80;99.90;;;;;;5049436;28;19916;-62
2021/09/15 12:36:40;;;;;;;30.30;23.87;;;22.00;99.90;;;;;;5049631;28;20055;-62
2021/09/15 12:39:16;;;;;;;29.23;23.98;;;22.00;99.90;;;;;;5032856;28;20044;-62